Ocean Phoenix — KCAK — position and weather

sailwx.info

Track history (hours):
 
Tides and Currents Weather Stations Pressure Air Temp Water Temp Dewpoint Dewpoint Depression Visibility Wind Speed Wind Dir Waves Ship Positions

Ocean Phoenix

Owner: PHOENIX PROCESSOR LTD. PARTNERSHIP, SEATTLE, WA. More information available from US FCC via Universal Licensing System and Coast Guard Vessel Documentation Center.

Last reported at 2017-Oct-15 21:50 UTC. Time now 2017-Oct-22 08:03 UTC.
Position N 43°47' W 124°56'.

Length 206 m; draft 8.1 m.

Type: Cargo ship. MMSI: 366588000.

Date/timePositionNaut miles runAvg speedWind from/ knotsBaromVisibWave heightAir tempDewpointWater temp
2017-Oct-15 21:50N 43°47' W 124°56'3 7.6
2017-Oct-15 21:30N 43°49' W 124°56'4 7.2
2017-Oct-15 20:55N 43°53' W 124°56'2 3.8
2017-Oct-15 20:29N 43°53' W 124°54'1 2.6
2017-Oct-15 20:00N 43°52' W 124°55'1 2.0
2017-Oct-15 19:17N 43°53' W 124°54'5 0.7
2017-Oct-15 11:59N 43°49' W 124°48'6 2.4
2017-Oct-15 09:42N 43°52' W 124°55'2 3.9
2017-Oct-15 09:18N 43°50' W 124°54'2 4.5
2017-Oct-15 08:52N 43°49' W 124°52'1 2.3
2017-Oct-15 08:30N 43°49' W 124°53'5 4.3
2017-Oct-15 07:27N 43°50' W 124°47'11 1.9
2017-Oct-15 01:40N 43°54' W 125°01'4 3.2
2017-Oct-15 00:26N 43°58' W 125°01'2 5.3
2017-Oct-15 00:00N 43°56' W 125°02'1 1.6
2017-Oct-14 23:29N 43°57' W 125°02'4 6.3
2017-Oct-14 22:53N 44°00' W 125°00'2 5.9
2017-Oct-14 22:30N 43°58' W 125°00'1 2.9
2017-Oct-14 22:00N 43°57' W 125°00'3 5.7
2017-Oct-14 21:30N 43°60' W 125°01'3 6.0
2017-Oct-14 21:00N 43°59' W 125°06'2 3.5
2017-Oct-14 20:30N 43°58' W 125°04'1 1.3
2017-Oct-14 20:00N 43°58' W 125°03'2 3.6
2017-Oct-14 19:30N 43°59' W 125°01'1 2.0
2017-Oct-14 19:00N 43°60' W 125°01'2 3.7
2017-Oct-14 18:30N 43°59' W 124°59'2 4.5
2017-Oct-14 17:59N 44°00' W 125°01'2 3.5
2017-Oct-14 17:30N 44°02' W 125°01'2 4.0
2017-Oct-14 16:59N 44°01' W 124°59'3 5.7
2017-Oct-14 16:30N 43°58' W 125°00'  
2017-Oct-10 08:29N 44°12' W 125°02'2 2.9
2017-Oct-10 07:53N 44°11' W 125°01'3 6.1
2017-Oct-10 07:22N 44°08' W 125°01'2 4.5
2017-Oct-10 06:55N 44°06' W 124°60'4 2.6
2017-Oct-10 05:12N 44°10' W 125°01'1 3.7
2017-Oct-10 04:57N 44°09' W 125°01'2 5.6
2017-Oct-10 04:30N 44°07' W 125°01'6 3.0
2017-Oct-10 02:23N 44°13' W 125°00'1 2.0
2017-Oct-10 01:59N 44°12' W 125°01'5 5.6
2017-Oct-10 01:09N 44°08' W 125°03'1 3.0
2017-Oct-10 00:58N 44°08' W 125°03'4 5.5
2017-Oct-10 00:18N 44°11' W 125°01'1 2.8
2017-Oct-10 00:00N 44°10' W 125°01'5 3.4
2017-Oct-09 22:32N 44°15' W 125°00'0 6.2
2017-Oct-09 22:30N 44°15' W 125°00'1 2.0
2017-Oct-09 22:00N 44°14' W 125°01'3 5.1
2017-Oct-09 21:30N 44°12' W 125°02'2 3.1
2017-Oct-09 21:00N 44°11' W 125°01'1 1.6
2017-Oct-09 20:30N 44°10' W 125°00'2 5.0
2017-Oct-09 20:00N 44°08' W 124°60'4 7.9
2017-Oct-09 19:30N 44°04' W 124°59'4 8.0
2017-Oct-09 19:00N 43°60' W 124°59'7 7.9
2017-Oct-09 18:04N 43°53' W 124°57'1 8.0
2017-Oct-09 17:58N 43°52' W 124°57'3 6.1
2017-Oct-09 17:30N 43°49' W 124°56'3 3.2
2017-Oct-09 16:39N 43°51' W 124°53'1 4.2
2017-Oct-09 16:25N 43°50' W 124°52'3 1.8
2017-Oct-09 14:38N 43°47' W 124°51'1 0.9
2017-Oct-09 13:17N 43°48' W 124°51'1 0.2
2017-Oct-09 04:58N 43°47' W 124°53'1 1.0
2017-Oct-09 04:23N 43°47' W 124°53'2 4.0
2017-Oct-09 03:58N 43°48' W 124°55'1 2.6
2017-Oct-09 03:30N 43°47' W 124°54'9 0.2
2017-Oct-07 09:04N 43°46' W 124°42'0 7.4
2017-Oct-07 09:00N 43°45' W 124°42'10 3.3
2017-Oct-07 05:57N 43°37' W 124°36'5 2.7
2017-Oct-07 04:15N 43°35' W 124°42'3 2.7
2017-Oct-07 03:19N 43°35' W 124°38'3 6.4
2017-Oct-07 02:48N 43°38' W 124°39'0 0.1
2017-Oct-07 02:30N 43°38' W 124°39'1 3.0
2017-Oct-07 02:00N 43°38' W 124°36'2 3.1
2017-Oct-07 01:30N 43°37' W 124°34'1 2.7
2017-Oct-07 01:00N 43°38' W 124°36'2 4.0
2017-Oct-07 00:30N 43°39' W 124°39'2 4.7
2017-Oct-07 00:01N 43°40' W 124°41'1 2.0
2017-Oct-06 23:31N 43°41' W 124°42'2 3.1
2017-Oct-06 23:00N 43°39' W 124°41'2 3.4
2017-Oct-06 22:30N 43°38' W 124°40'2 3.3
2017-Oct-06 22:00N 43°38' W 124°37'4 6.7
2017-Oct-06 21:28N 43°40' W 124°41'0 1.0
2017-Oct-06 21:00N 43°41' W 124°42'1 2.1
2017-Oct-06 20:30N 43°41' W 124°43'2 3.9
2017-Oct-06 20:01N 43°42' W 124°45'1 2.4
2017-Oct-06 19:30N 43°43' W 124°43'2 3.8
2017-Oct-06 19:00N 43°42' W 124°41'1 2.2
2017-Oct-06 18:30N 43°41' W 124°42'1 2.9
2017-Oct-06 18:00N 43°43' W 124°41'1 1.2
2017-Oct-06 17:29N 43°43' W 124°41'1 2.2
2017-Oct-06 17:00N 43°43' W 124°40'2 4.1
2017-Oct-06 16:31N 43°45' W 124°41'1 1.6
2017-Oct-06 15:52N 43°46' W 124°42'1 1.6
2017-Oct-06 15:30N 43°46' W 124°42'5 6.3
2017-Oct-06 14:42N 43°50' W 124°47'1 4.3
2017-Oct-06 14:30N 43°49' W 124°46'1 2.0
2017-Oct-06 14:00N 43°49' W 124°46'2 4.1
2017-Oct-06 13:30N 43°49' W 124°49'2 4.3
2017-Oct-06 13:00N 43°49' W 124°46'2 3.4
2017-Oct-06 12:30N 43°49' W 124°44'2 3.6
2017-Oct-06 11:50N 43°48' W 124°41'1 2.9
2017-Oct-06 11:30N 43°47' W 124°41'3 5.1
2017-Oct-06 10:57N 43°49' W 124°44'0 0.8
2017-Oct-06 10:30N 43°49' W 124°44'1 2.8
2017-Oct-06 10:00N 43°48' W 124°45'2 4.5
2017-Oct-06 09:30N 43°47' W 124°42'3 4.9
2017-Oct-06 08:59N 43°47' W 124°46'1 2.2
2017-Oct-06 08:30N 43°46' W 124°46'1 1.3
2017-Oct-06 08:00N 43°46' W 124°46'2 4.2
2017-Oct-06 07:30N 43°48' W 124°45'2 4.4
2017-Oct-06 07:00N 43°45' W 124°46'2 3.1
2017-Oct-06 06:30N 43°45' W 124°44'2 3.1
2017-Oct-06 06:00N 43°45' W 124°42'1 2.9
2017-Oct-06 05:30N 43°43' W 124°41'2 4.3
2017-Oct-06 05:00N 43°41' W 124°41'2 4.2
2017-Oct-06 04:30N 43°43' W 124°40'3 6.6
2017-Oct-06 04:00N 43°46' W 124°38'0 0.4
2017-Oct-06 03:30N 43°46' W 124°38'3 5.8
2017-Oct-06 03:00N 43°43' W 124°40'3 6.6
2017-Oct-06 02:30N 43°40' W 124°40'2 3.7
2017-Oct-06 02:00N 43°40' W 124°38'1 2.5
2017-Oct-06 01:30N 43°41' W 124°38'3 5.2
2017-Oct-06 01:00N 43°40' W 124°41'1 2.8
2017-Oct-06 00:30N 43°39' W 124°39'4 7.5
2017-Oct-06 00:00N 43°41' W 124°43'3 6.2
2017-Oct-05 23:30N 43°44' W 124°43'3 5.5
2017-Oct-05 23:00N 43°47' W 124°43'2 4.5
2017-Oct-05 22:30N 43°49' W 124°41'4 8.0
2017-Oct-05 22:00N 43°52' W 124°39'  
Track history (hours):
 
Tides and Currents Weather Stations Pressure Air Temp Water Temp Dewpoint Dewpoint Depression Visibility Wind Speed Wind Dir Waves Ship Positions

Ocean Phoenix

Owner: PHOENIX PROCESSOR LTD. PARTNERSHIP, SEATTLE, WA. More information available from US FCC via Universal Licensing System and Coast Guard Vessel Documentation Center.

Last reported at 2017-Oct-15 21:50 UTC. Time now 2017-Oct-22 08:03 UTC.
Position N 43°47' W 124°56'.

Length 206 m; draft 8.1 m.

Type: Cargo ship. MMSI: 366588000.

Date/timePositionNaut miles runAvg speedWind from/ knotsBaromVisibWave heightAir tempDewpointWater temp
2017-Oct-15 21:50N 43°47' W 124°56'3 7.6
2017-Oct-15 21:30N 43°49' W 124°56'4 7.2
2017-Oct-15 20:55N 43°53' W 124°56'2 3.8
2017-Oct-15 20:29N 43°53' W 124°54'1 2.6
2017-Oct-15 20:00N 43°52' W 124°55'1 2.0
2017-Oct-15 19:17N 43°53' W 124°54'5 0.7
2017-Oct-15 11:59N 43°49' W 124°48'6 2.4
2017-Oct-15 09:42N 43°52' W 124°55'2 3.9
2017-Oct-15 09:18N 43°50' W 124°54'2 4.5
2017-Oct-15 08:52N 43°49' W 124°52'1 2.3
2017-Oct-15 08:30N 43°49' W 124°53'5 4.3
2017-Oct-15 07:27N 43°50' W 124°47'11 1.9
2017-Oct-15 01:40N 43°54' W 125°01'4 3.2
2017-Oct-15 00:26N 43°58' W 125°01'2 5.3
2017-Oct-15 00:00N 43°56' W 125°02'1 1.6
2017-Oct-14 23:29N 43°57' W 125°02'4 6.3
2017-Oct-14 22:53N 44°00' W 125°00'2 5.9
2017-Oct-14 22:30N 43°58' W 125°00'1 2.9
2017-Oct-14 22:00N 43°57' W 125°00'3 5.7
2017-Oct-14 21:30N 43°60' W 125°01'3 6.0
2017-Oct-14 21:00N 43°59' W 125°06'2 3.5
2017-Oct-14 20:30N 43°58' W 125°04'1 1.3
2017-Oct-14 20:00N 43°58' W 125°03'2 3.6
2017-Oct-14 19:30N 43°59' W 125°01'1 2.0
2017-Oct-14 19:00N 43°60' W 125°01'2 3.7
2017-Oct-14 18:30N 43°59' W 124°59'2 4.5
2017-Oct-14 17:59N 44°00' W 125°01'2 3.5
2017-Oct-14 17:30N 44°02' W 125°01'2 4.0
2017-Oct-14 16:59N 44°01' W 124°59'3 5.7
2017-Oct-14 16:30N 43°58' W 125°00'  
2017-Oct-10 08:29N 44°12' W 125°02'2 2.9
2017-Oct-10 07:53N 44°11' W 125°01'3 6.1
2017-Oct-10 07:22N 44°08' W 125°01'2 4.5
2017-Oct-10 06:55N 44°06' W 124°60'4 2.6
2017-Oct-10 05:12N 44°10' W 125°01'1 3.7
2017-Oct-10 04:57N 44°09' W 125°01'2 5.6
2017-Oct-10 04:30N 44°07' W 125°01'6 3.0
2017-Oct-10 02:23N 44°13' W 125°00'1 2.0
2017-Oct-10 01:59N 44°12' W 125°01'5 5.6
2017-Oct-10 01:09N 44°08' W 125°03'1 3.0
2017-Oct-10 00:58N 44°08' W 125°03'4 5.5
2017-Oct-10 00:18N 44°11' W 125°01'1 2.8
2017-Oct-10 00:00N 44°10' W 125°01'5 3.4
2017-Oct-09 22:32N 44°15' W 125°00'0 6.2
2017-Oct-09 22:30N 44°15' W 125°00'1 2.0
2017-Oct-09 22:00N 44°14' W 125°01'3 5.1
2017-Oct-09 21:30N 44°12' W 125°02'2 3.1
2017-Oct-09 21:00N 44°11' W 125°01'1 1.6
2017-Oct-09 20:30N 44°10' W 125°00'2 5.0
2017-Oct-09 20:00N 44°08' W 124°60'4 7.9
2017-Oct-09 19:30N 44°04' W 124°59'4 8.0
2017-Oct-09 19:00N 43°60' W 124°59'7 7.9
2017-Oct-09 18:04N 43°53' W 124°57'1 8.0
2017-Oct-09 17:58N 43°52' W 124°57'3 6.1
2017-Oct-09 17:30N 43°49' W 124°56'3 3.2
2017-Oct-09 16:39N 43°51' W 124°53'1 4.2
2017-Oct-09 16:25N 43°50' W 124°52'3 1.8
2017-Oct-09 14:38N 43°47' W 124°51'1 0.9
2017-Oct-09 13:17N 43°48' W 124°51'1 0.2
2017-Oct-09 04:58N 43°47' W 124°53'1 1.0
2017-Oct-09 04:23N 43°47' W 124°53'2 4.0
2017-Oct-09 03:58N 43°48' W 124°55'1 2.6
2017-Oct-09 03:30N 43°47' W 124°54'9 0.2
2017-Oct-07 09:04N 43°46' W 124°42'0 7.4
2017-Oct-07 09:00N 43°45' W 124°42'10 3.3
2017-Oct-07 05:57N 43°37' W 124°36'5 2.7
2017-Oct-07 04:15N 43°35' W 124°42'3 2.7
2017-Oct-07 03:19N 43°35' W 124°38'3 6.4
2017-Oct-07 02:48N 43°38' W 124°39'0 0.1
2017-Oct-07 02:30N 43°38' W 124°39'1 3.0
2017-Oct-07 02:00N 43°38' W 124°36'2 3.1
2017-Oct-07 01:30N 43°37' W 124°34'1 2.7
2017-Oct-07 01:00N 43°38' W 124°36'2 4.0
2017-Oct-07 00:30N 43°39' W 124°39'2 4.7
2017-Oct-07 00:01N 43°40' W 124°41'1 2.0
2017-Oct-06 23:31N 43°41' W 124°42'2 3.1
2017-Oct-06 23:00N 43°39' W 124°41'2 3.4
2017-Oct-06 22:30N 43°38' W 124°40'2 3.3
2017-Oct-06 22:00N 43°38' W 124°37'4 6.7
2017-Oct-06 21:28N 43°40' W 124°41'0 1.0
2017-Oct-06 21:00N 43°41' W 124°42'1 2.1
2017-Oct-06 20:30N 43°41' W 124°43'2 3.9
2017-Oct-06 20:01N 43°42' W 124°45'1 2.4
2017-Oct-06 19:30N 43°43' W 124°43'2 3.8
2017-Oct-06 19:00N 43°42' W 124°41'1 2.2
2017-Oct-06 18:30N 43°41' W 124°42'1 2.9
2017-Oct-06 18:00N 43°43' W 124°41'1 1.2
2017-Oct-06 17:29N 43°43' W 124°41'1 2.2
2017-Oct-06 17:00N 43°43' W 124°40'2 4.1
2017-Oct-06 16:31N 43°45' W 124°41'1 1.6
2017-Oct-06 15:52N 43°46' W 124°42'1 1.6
2017-Oct-06 15:30N 43°46' W 124°42'5 6.3
2017-Oct-06 14:42N 43°50' W 124°47'1 4.3
2017-Oct-06 14:30N 43°49' W 124°46'1 2.0
2017-Oct-06 14:00N 43°49' W 124°46'2 4.1
2017-Oct-06 13:30N 43°49' W 124°49'2 4.3
2017-Oct-06 13:00N 43°49' W 124°46'2 3.4
2017-Oct-06 12:30N 43°49' W 124°44'2 3.6
2017-Oct-06 11:50N 43°48' W 124°41'1 2.9
2017-Oct-06 11:30N 43°47' W 124°41'3 5.1
2017-Oct-06 10:57N 43°49' W 124°44'0 0.8
2017-Oct-06 10:30N 43°49' W 124°44'1 2.8
2017-Oct-06 10:00N 43°48' W 124°45'2 4.5
2017-Oct-06 09:30N 43°47' W 124°42'3 4.9
2017-Oct-06 08:59N 43°47' W 124°46'1 2.2
2017-Oct-06 08:30N 43°46' W 124°46'1 1.3
2017-Oct-06 08:00N 43°46' W 124°46'2 4.2
2017-Oct-06 07:30N 43°48' W 124°45'2 4.4
2017-Oct-06 07:00N 43°45' W 124°46'2 3.1
2017-Oct-06 06:30N 43°45' W 124°44'2 3.1
2017-Oct-06 06:00N 43°45' W 124°42'1 2.9
2017-Oct-06 05:30N 43°43' W 124°41'2 4.3
2017-Oct-06 05:00N 43°41' W 124°41'2 4.2
2017-Oct-06 04:30N 43°43' W 124°40'3 6.6
2017-Oct-06 04:00N 43°46' W 124°38'0 0.4
2017-Oct-06 03:30N 43°46' W 124°38'3 5.8
2017-Oct-06 03:00N 43°43' W 124°40'3 6.6
2017-Oct-06 02:30N 43°40' W 124°40'2 3.7
2017-Oct-06 02:00N 43°40' W 124°38'1 2.5
2017-Oct-06 01:30N 43°41' W 124°38'3 5.2
2017-Oct-06 01:00N 43°40' W 124°41'1 2.8
2017-Oct-06 00:30N 43°39' W 124°39'4 7.5
2017-Oct-06 00:00N 43°41' W 124°43'3 6.2
2017-Oct-05 23:30N 43°44' W 124°43'3 5.5
2017-Oct-05 23:00N 43°47' W 124°43'2 4.5
2017-Oct-05 22:30N 43°49' W 124°41'4 8.0
2017-Oct-05 22:00N 43°52' W 124°39'  

Dump ship's entire track history